ADDS METAR Data INFO
IDs: Format: Raw Decoded Include TAF

Data at: 0440 UTC 24 Apr 2018

KCPR 240432Z AUTO 01016KT 10SM BKN015 OVC034 01/M02 A3038 RMK AO2 T00061022
KCPR 240353Z AUTO 03014KT 10SM OVC013 00/M02 A3037 RMK AO2 SLP281 T00001022
KCPR 240253Z 03012KT 10SM OVC013 01/M02 A3035 RMK AO2 SLP277 T00061022 51031
KCPR 240153Z 02018G25KT 10SM OVC012 01/M02 A3032 RMK AO2 PK WND 03026/0118 SLP273 T00061017
KCPR 240129Z 04018KT 10SM OVC013 01/M01 A3030 RMK AO2 PK WND 03026/0118 T00111011
KCPR 240053Z 03017KT 10SM OVC016 02/M01 A3028 RMK AO2 SLP267 T00221011
KCPR 232353Z 02016KT 10SM BKN016 OVC040 03/00 A3024 RMK AO2 PK WND 02029/2310 SLP254 60002 T00280000 10133 20028 53037
KCPR 232253Z 02022KT 10SM OVC029 04/01 A3018 RMK AO2 PK WND 02029/2237 SLP226 T00390006
KCPR 232205Z 02022G27KT 10SM SCT013 BKN029 OVC037 06/02 A3016 RMK AO2 PK WND 02027/2205 T00560022
KCPR 232153Z 01023G27KT 10SM FEW022 BKN030 OVC045 07/03 A3016 RMK AO2 PK WND 01028/2134 PRESRR SLP206 T00720028
KCPR 232144Z 01023KT 10SM FEW025 BKN034 OVC047 07/03 A3014 RMK AO2 PK WND 01028/2134 T00720033
KCPR 232122Z 01021G27KT 10SM BKN028 OVC036 10/04 A3013 RMK AO2 PK WND 01027/2122 T01000039
KCPR 232053Z 34009KT 10SM SCT029 BKN038 BKN048 11/04 A3012 RMK AO2 SLP179 60002 T01110039 51009
KCPR 231953Z AUTO 02008KT 10SM SCT036 SCT043 09/05 A3010 RMK AO2 RAB11E43 SLP182 P0002 T00940050
KCPR 231853Z 35017KT 10SM BKN060 OVC075 10/01 A3011 RMK AO2 SLP186 T01000011
KCPR 231753Z 35019KT 10SM FEW055 SCT070 BKN080 12/02 A3008 RMK AO2 SLP163 T01220022 10128 20000 53014
KCPR 231653Z 34013G17KT 10SM BKN090 12/03 A3006 RMK AO2 SLP150 T01170033
KCPR 231553Z 36008G17KT 10SM FEW080 BKN100 BKN110 12/04 A3002 RMK AO2 SLP136 T01170044
KCPR 231453Z 01009KT 10SM CLR 09/03 A3003 RMK AO2 SLP139 T00890033 53007
KCPR 231353Z 07003KT 10SM CLR 06/03 A3002 RMK AO2 SLP137 T00560028
KCPR 231253Z 25003KT 10SM CLR 01/00 A3001 RMK AO2 SLP140 T00060000
KCPR 231153Z 00000KT 10SM BKN110 01/00 A3001 RMK AO2 SLP134 T00060000 10061 20000 58003
KCPR 231053Z 06004KT 10SM CLR 02/01 A3001 RMK AO2 SLP132 T00220006
KCPR 230953Z AUTO 05003KT 10SM CLR 03/01 A3002 RMK AO2 SLP131 T00330006
KCPR 230853Z AUTO 05003KT 10SM CLR 05/01 A3002 RMK AO2 SLP130 T00500006 58002
KCPR 230753Z AUTO 35003KT 10SM CLR 03/01 A3002 RMK AO2 SLP138 T00330011
KCPR 230653Z AUTO 36003KT 10SM CLR 03/01 A3003 RMK AO2 SLP145 T00330006 402061022
KCPR 230553Z AUTO 00000KT 10SM CLR 06/01 A3003 RMK AO2 SLP141 T00610011 10194 20056 50005
KCPR 230453Z AUTO 07006KT 10SM CLR 09/01 A3003 RMK AO2 SLP141 T00890011
KCPR 230353Z AUTO 07009KT 10SM CLR 11/01 A3002 RMK AO2 SLP140 T01060011
KCPR 230253Z AUTO 09012KT 10SM CLR 13/01 A3001 RMK AO2 SLP133 T01280011 55003
KCPR 230153Z 09012KT 10SM CLR 15/01 A3001 RMK AO2 SLP134 T01500006
KCPR 230053Z 11013KT 10SM CLR 18/01 A3001 RMK AO2 SLP134 T01780006
KCPR 222353Z 11009KT 10SM CLR 19/01 A3002 RMK AO2 SLP138 T01940011 10206 20133 56015
KCPR 222253Z 17008KT 10SM CLR 20/01 A3003 RMK AO2 SLP144 T02000006
KCPR 222153Z 10005KT 10SM CLR 20/01 A3005 RMK AO2 SLP150 T02000011
KCPR 222053Z 22006KT 10SM CLR 19/02 A3007 RMK AO2 SLP159 T01890017 56025
KCPR 221953Z 00000KT 10SM CLR 17/03 A3010 RMK AO2 SLP171 T01720028
KCPR 221853Z 00000KT 10SM CLR 15/03 A3013 RMK AO2 SLP181 T01500033
KCPR 221753Z 00000KT 10SM R03/6000VP6000FT CLR 13/03 A3016 RMK AO2 SLP194 I6000 T01330033 10133 21006 58015
KCPR 221653Z VRB03KT 10SM R03/5500VP6000FT CLR 12/03 A3018 RMK AO2 SLP198 T01170028